sensor_id;sensor_type;location;lat;lon;timestamp;temperature;humidity
23467;DHT22;59740;47.696;11.746;2023-10-19T00:02:19;12.10;85.60
23467;DHT22;59740;47.696;11.746;2023-10-19T00:04:47;12.10;85.70
23467;DHT22;59740;47.696;11.746;2023-10-19T00:07:18;12.00;85.70
23467;DHT22;59740;47.696;11.746;2023-10-19T00:09:45;12.00;85.80
23467;DHT22;59740;47.696;11.746;2023-10-19T00:12:18;12.00;85.70
23467;DHT22;59740;47.696;11.746;2023-10-19T00:14:49;11.90;85.90
23467;DHT22;59740;47.696;11.746;2023-10-19T00:17:17;11.90;85.90
23467;DHT22;59740;47.696;11.746;2023-10-19T00:19:48;11.90;85.90
23467;DHT22;59740;47.696;11.746;2023-10-19T00:22:38;11.90;85.90
23467;DHT22;59740;47.696;11.746;2023-10-19T00:25:06;11.90;86.00
23467;DHT22;59740;47.696;11.746;2023-10-19T00:27:40;11.80;85.80
23467;DHT22;59740;47.696;11.746;2023-10-19T00:30:10;11.80;85.90
23467;DHT22;59740;47.696;11.746;2023-10-19T00:32:48;11.80;86.00
23467;DHT22;59740;47.696;11.746;2023-10-19T00:35:18;11.80;86.10
23467;DHT22;59740;47.696;11.746;2023-10-19T00:37:57;11.80;86.30
23467;DHT22;59740;47.696;11.746;2023-10-19T00:40:50;11.70;86.30
23467;DHT22;59740;47.696;11.746;2023-10-19T00:43:27;11.70;86.40
23467;DHT22;59740;47.696;11.746;2023-10-19T00:46:00;11.80;86.30
23467;DHT22;59740;47.696;11.746;2023-10-19T00:48:31;11.70;86.40
23467;DHT22;59740;47.696;11.746;2023-10-19T00:51:00;11.70;86.30
23467;DHT22;59740;47.696;11.746;2023-10-19T00:53:38;11.70;86.30
23467;DHT22;59740;47.696;11.746;2023-10-19T00:56:09;11.70;86.30
23467;DHT22;59740;47.696;11.746;2023-10-19T00:58:38;11.70;86.40
23467;DHT22;59740;47.696;11.746;2023-10-19T01:01:08;11.70;86.60
23467;DHT22;59740;47.696;11.746;2023-10-19T01:03:37;11.70;86.60
23467;DHT22;59740;47.696;11.746;2023-10-19T01:06:06;11.70;87.40
23467;DHT22;59740;47.696;11.746;2023-10-19T01:08:41;11.60;86.70
23467;DHT22;59740;47.696;11.746;2023-10-19T01:11:11;11.70;86.60
23467;DHT22;59740;47.696;11.746;2023-10-19T01:13:42;11.70;87.10
23467;DHT22;59740;47.696;11.746;2023-10-19T01:16:14;11.60;87.00
23467;DHT22;59740;47.696;11.746;2023-10-19T01:18:49;11.60;86.90
23467;DHT22;59740;47.696;11.746;2023-10-19T01:21:22;11.60;87.30
23467;DHT22;59740;47.696;11.746;2023-10-19T01:23:55;11.60;87.40
23467;DHT22;59740;47.696;11.746;2023-10-19T01:26:25;11.60;87.70
23467;DHT22;59740;47.696;11.746;2023-10-19T01:28:54;11.70;87.70
23467;DHT22;59740;47.696;11.746;2023-10-19T01:31:28;11.70;87.90
23467;DHT22;59740;47.696;11.746;2023-10-19T01:34:05;11.70;87.60
23467;DHT22;59740;47.696;11.746;2023-10-19T01:36:36;11.70;87.50
23467;DHT22;59740;47.696;11.746;2023-10-19T01:39:11;11.70;87.50
23467;DHT22;59740;47.696;11.746;2023-10-19T01:41:40;11.70;87.50
23467;DHT22;59740;47.696;11.746;2023-10-19T01:44:08;11.80;87.80
23467;DHT22;59740;47.696;11.746;2023-10-19T01:46:41;11.80;87.80
23467;DHT22;59740;47.696;11.746;2023-10-19T01:49:11;11.80;87.60
23467;DHT22;59740;47.696;11.746;2023-10-19T01:51:40;11.80;87.60
23467;DHT22;59740;47.696;11.746;2023-10-19T01:54:10;11.80;87.90
23467;DHT22;59740;47.696;11.746;2023-10-19T01:56:38;11.90;88.10
23467;DHT22;59740;47.696;11.746;2023-10-19T01:59:09;11.90;88.30
23467;DHT22;59740;47.696;11.746;2023-10-19T02:01:38;11.90;88.40
23467;DHT22;59740;47.696;11.746;2023-10-19T02:04:09;11.90;88.40
23467;DHT22;59740;47.696;11.746;2023-10-19T02:06:40;11.90;87.90
23467;DHT22;59740;47.696;11.746;2023-10-19T02:09:11;11.90;88.20
23467;DHT22;59740;47.696;11.746;2023-10-19T02:11:46;11.90;87.90
23467;DHT22;59740;47.696;11.746;2023-10-19T02:14:16;11.90;87.80
23467;DHT22;59740;47.696;11.746;2023-10-19T02:16:47;11.90;88.00
23467;DHT22;59740;47.696;11.746;2023-10-19T02:19:20;12.00;87.40
23467;DHT22;59740;47.696;11.746;2023-10-19T02:21:51;12.00;87.80
23467;DHT22;59740;47.696;11.746;2023-10-19T02:24:20;12.00;87.50
23467;DHT22;59740;47.696;11.746;2023-10-19T02:26:51;12.10;88.10
23467;DHT22;59740;47.696;11.746;2023-10-19T02:29:19;12.10;87.50
23467;DHT22;59740;47.696;11.746;2023-10-19T02:31:48;12.10;87.50
23467;DHT22;59740;47.696;11.746;2023-10-19T02:34:18;12.10;87.80
23467;DHT22;59740;47.696;11.746;2023-10-19T02:36:47;12.00;88.00
23467;DHT22;59740;47.696;11.746;2023-10-19T02:39:15;12.00;88.00
23467;DHT22;59740;47.696;11.746;2023-10-19T02:41:47;12.00;87.80
23467;DHT22;59740;47.696;11.746;2023-10-19T02:44:17;12.00;87.80
23467;DHT22;59740;47.696;11.746;2023-10-19T02:46:50;12.00;87.80
23467;DHT22;59740;47.696;11.746;2023-10-19T02:49:21;12.00;88.10
23467;DHT22;59740;47.696;11.746;2023-10-19T02:51:51;12.00;88.00
23467;DHT22;59740;47.696;11.746;2023-10-19T02:54:20;12.00;88.10
23467;DHT22;59740;47.696;11.746;2023-10-19T02:56:52;12.00;88.00
23467;DHT22;59740;47.696;11.746;2023-10-19T02:59:22;12.00;87.90
23467;DHT22;59740;47.696;11.746;2023-10-19T03:01:52;12.00;88.40
23467;DHT22;59740;47.696;11.746;2023-10-19T03:04:22;12.00;88.10
23467;DHT22;59740;47.696;11.746;2023-10-19T03:06:50;11.90;88.30
23467;DHT22;59740;47.696;11.746;2023-10-19T03:09:19;11.90;88.30
23467;DHT22;59740;47.696;11.746;2023-10-19T03:11:57;11.90;88.30
23467;DHT22;59740;47.696;11.746;2023-10-19T03:14:27;11.90;88.30
23467;DHT22;59740;47.696;11.746;2023-10-19T03:16:56;11.90;88.50
23467;DHT22;59740;47.696;11.746;2023-10-19T03:19:25;11.90;88.60
23467;DHT22;59740;47.696;11.746;2023-10-19T03:21:54;11.90;88.70
23467;DHT22;59740;47.696;11.746;2023-10-19T03:24:23;11.80;88.80
23467;DHT22;59740;47.696;11.746;2023-10-19T03:27:05;11.80;88.90
23467;DHT22;59740;47.696;11.746;2023-10-19T03:29:41;11.80;88.90
23467;DHT22;59740;47.696;11.746;2023-10-19T03:32:13;11.80;89.00
23467;DHT22;59740;47.696;11.746;2023-10-19T03:34:41;11.80;88.80
23467;DHT22;59740;47.696;11.746;2023-10-19T03:37:15;11.80;88.60
23467;DHT22;59740;47.696;11.746;2023-10-19T03:39:46;11.80;88.70
23467;DHT22;59740;47.696;11.746;2023-10-19T03:42:16;11.80;88.70
23467;DHT22;59740;47.696;11.746;2023-10-19T03:44:45;11.80;88.60
23467;DHT22;59740;47.696;11.746;2023-10-19T03:47:21;11.90;88.40
23467;DHT22;59740;47.696;11.746;2023-10-19T03:49:53;11.80;88.50
23467;DHT22;59740;47.696;11.746;2023-10-19T03:52:22;11.80;88.60
23467;DHT22;59740;47.696;11.746;2023-10-19T03:54:50;11.80;88.50
23467;DHT22;59740;47.696;11.746;2023-10-19T03:57:20;11.80;88.40
23467;DHT22;59740;47.696;11.746;2023-10-19T03:59:51;11.90;88.50
23467;DHT22;59740;47.696;11.746;2023-10-19T04:02:24;11.90;88.60
23467;DHT22;59740;47.696;11.746;2023-10-19T04:04:54;11.90;88.70
23467;DHT22;59740;47.696;11.746;2023-10-19T04:07:24;11.90;88.70
23467;DHT22;59740;47.696;11.746;2023-10-19T04:09:54;11.80;89.10
23467;DHT22;59740;47.696;11.746;2023-10-19T04:12:28;11.90;89.00
23467;DHT22;59740;47.696;11.746;2023-10-19T04:14:59;11.80;88.90
23467;DHT22;59740;47.696;11.746;2023-10-19T04:17:36;11.90;88.90
23467;DHT22;59740;47.696;11.746;2023-10-19T04:20:07;11.80;89.10
23467;DHT22;59740;47.696;11.746;2023-10-19T04:22:54;11.80;89.10
23467;DHT22;59740;47.696;11.746;2023-10-19T04:25:23;11.90;89.10
23467;DHT22;59740;47.696;11.746;2023-10-19T04:27:55;11.80;89.40
23467;DHT22;59740;47.696;11.746;2023-10-19T04:30:24;11.80;89.40
23467;DHT22;59740;47.696;11.746;2023-10-19T04:32:53;11.80;89.60
23467;DHT22;59740;47.696;11.746;2023-10-19T04:35:25;11.90;89.40
23467;DHT22;59740;47.696;11.746;2023-10-19T04:37:57;11.80;89.60
23467;DHT22;59740;47.696;11.746;2023-10-19T04:40:27;11.80;89.50
23467;DHT22;59740;47.696;11.746;2023-10-19T04:42:57;11.80;89.60
23467;DHT22;59740;47.696;11.746;2023-10-19T04:45:27;11.80;89.60
23467;DHT22;59740;47.696;11.746;2023-10-19T04:47:56;11.90;90.20
23467;DHT22;59740;47.696;11.746;2023-10-19T04:50:25;11.80;90.10
23467;DHT22;59740;47.696;11.746;2023-10-19T04:52:53;11.80;89.90
23467;DHT22;59740;47.696;11.746;2023-10-19T04:55:22;11.90;90.00
23467;DHT22;59740;47.696;11.746;2023-10-19T04:57:51;11.90;90.10
23467;DHT22;59740;47.696;11.746;2023-10-19T05:00:21;11.90;90.00
23467;DHT22;59740;47.696;11.746;2023-10-19T05:02:51;11.80;90.00
23467;DHT22;59740;47.696;11.746;2023-10-19T05:05:20;11.90;90.00
23467;DHT22;59740;47.696;11.746;2023-10-19T05:07:48;11.90;89.60
23467;DHT22;59740;47.696;11.746;2023-10-19T05:10:17;11.90;90.10
23467;DHT22;59740;47.696;11.746;2023-10-19T05:12:47;11.90;89.70
23467;DHT22;59740;47.696;11.746;2023-10-19T05:15:16;11.90;89.70
23467;DHT22;59740;47.696;11.746;2023-10-19T05:17:47;11.90;89.90
23467;DHT22;59740;47.696;11.746;2023-10-19T05:20:15;11.90;90.10
23467;DHT22;59740;47.696;11.746;2023-10-19T05:22:44;11.90;90.10
23467;DHT22;59740;47.696;11.746;2023-10-19T05:25:12;11.90;90.10
23467;DHT22;59740;47.696;11.746;2023-10-19T05:27:41;11.90;90.00
23467;DHT22;59740;47.696;11.746;2023-10-19T05:30:13;11.90;90.10
23467;DHT22;59740;47.696;11.746;2023-10-19T05:32:41;11.90;90.00
23467;DHT22;59740;47.696;11.746;2023-10-19T05:35:11;11.90;90.10
23467;DHT22;59740;47.696;11.746;2023-10-19T05:37:50;11.90;90.10
23467;DHT22;59740;47.696;11.746;2023-10-19T05:40:18;11.90;90.00
23467;DHT22;59740;47.696;11.746;2023-10-19T05:42:47;11.90;90.20
23467;DHT22;59740;47.696;11.746;2023-10-19T05:45:15;11.90;90.30
23467;DHT22;59740;47.696;11.746;2023-10-19T05:47:44;11.90;90.20
23467;DHT22;59740;47.696;11.746;2023-10-19T05:50:14;11.90;90.40
23467;DHT22;59740;47.696;11.746;2023-10-19T05:52:43;11.90;90.20
23467;DHT22;59740;47.696;11.746;2023-10-19T05:55:13;11.90;90.30
23467;DHT22;59740;47.696;11.746;2023-10-19T05:57:41;11.90;90.40
23467;DHT22;59740;47.696;11.746;2023-10-19T06:00:11;11.90;90.40
23467;DHT22;59740;47.696;11.746;2023-10-19T06:02:43;11.90;90.40
23467;DHT22;59740;47.696;11.746;2023-10-19T06:05:14;11.90;90.40
23467;DHT22;59740;47.696;11.746;2023-10-19T06:07:44;11.90;90.60
23467;DHT22;59740;47.696;11.746;2023-10-19T06:10:15;11.90;90.70
23467;DHT22;59740;47.696;11.746;2023-10-19T06:12:49;11.90;90.60
23467;DHT22;59740;47.696;11.746;2023-10-19T06:15:19;11.90;90.70
23467;DHT22;59740;47.696;11.746;2023-10-19T06:17:49;11.90;90.70
23467;DHT22;59740;47.696;11.746;2023-10-19T06:20:20;11.90;91.20
23467;DHT22;59740;47.696;11.746;2023-10-19T06:22:51;12.00;91.10
23467;DHT22;59740;47.696;11.746;2023-10-19T06:25:21;12.00;90.80
23467;DHT22;59740;47.696;11.746;2023-10-19T06:27:51;12.00;90.90
23467;DHT22;59740;47.696;11.746;2023-10-19T06:30:20;12.00;90.80
23467;DHT22;59740;47.696;11.746;2023-10-19T06:32:52;12.10;90.70
23467;DHT22;59740;47.696;11.746;2023-10-19T06:35:22;12.10;90.90
23467;DHT22;59740;47.696;11.746;2023-10-19T06:37:53;12.10;90.80
23467;DHT22;59740;47.696;11.746;2023-10-19T06:40:23;12.10;90.70
23467;DHT22;59740;47.696;11.746;2023-10-19T06:42:54;12.10;90.80
23467;DHT22;59740;47.696;11.746;2023-10-19T06:45:24;12.10;91.00
23467;DHT22;59740;47.696;11.746;2023-10-19T06:47:53;12.20;91.20
23467;DHT22;59740;47.696;11.746;2023-10-19T06:50:24;12.20;91.10
23467;DHT22;59740;47.696;11.746;2023-10-19T06:53:30;12.20;90.90
23467;DHT22;59740;47.696;11.746;2023-10-19T06:56:00;12.20;91.20
23467;DHT22;59740;47.696;11.746;2023-10-19T06:58:29;12.20;91.50
23467;DHT22;59740;47.696;11.746;2023-10-19T07:00:57;12.20;91.50
23467;DHT22;59740;47.696;11.746;2023-10-19T07:03:27;12.30;91.50
23467;DHT22;59740;47.696;11.746;2023-10-19T07:05:57;12.30;91.60
23467;DHT22;59740;47.696;11.746;2023-10-19T07:08:27;12.30;91.80
23467;DHT22;59740;47.696;11.746;2023-10-19T07:10:55;12.30;91.60
23467;DHT22;59740;47.696;11.746;2023-10-19T07:13:25;12.40;91.50
23467;DHT22;59740;47.696;11.746;2023-10-19T07:15:55;12.40;91.30
23467;DHT22;59740;47.696;11.746;2023-10-19T07:18:23;12.50;91.30
23467;DHT22;59740;47.696;11.746;2023-10-19T07:20:52;12.50;91.20
23467;DHT22;59740;47.696;11.746;2023-10-19T07:23:29;12.60;91.30
23467;DHT22;59740;47.696;11.746;2023-10-19T07:25:57;12.70;91.60
23467;DHT22;59740;47.696;11.746;2023-10-19T07:28:28;12.70;91.30
23467;DHT22;59740;47.696;11.746;2023-10-19T07:30:57;12.70;91.20
23467;DHT22;59740;47.696;11.746;2023-10-19T07:33:27;12.70;91.30
23467;DHT22;59740;47.696;11.746;2023-10-19T07:35:56;12.80;91.70
23467;DHT22;59740;47.696;11.746;2023-10-19T07:38:29;12.80;91.40
23467;DHT22;59740;47.696;11.746;2023-10-19T07:41:00;12.90;91.20
23467;DHT22;59740;47.696;11.746;2023-10-19T07:43:29;12.90;90.90
23467;DHT22;59740;47.696;11.746;2023-10-19T07:45:57;12.90;90.60
23467;DHT22;59740;47.696;11.746;2023-10-19T07:48:26;13.00;90.50
23467;DHT22;59740;47.696;11.746;2023-10-19T07:50:55;13.00;90.40
23467;DHT22;59740;47.696;11.746;2023-10-19T07:53:24;13.00;90.50
23467;DHT22;59740;47.696;11.746;2023-10-19T07:55:54;13.10;90.30
23467;DHT22;59740;47.696;11.746;2023-10-19T07:58:24;13.10;90.20
23467;DHT22;59740;47.696;11.746;2023-10-19T08:00:53;13.20;90.30
23467;DHT22;59740;47.696;11.746;2023-10-19T08:03:21;13.20;90.60
23467;DHT22;59740;47.696;11.746;2023-10-19T08:05:50;13.20;90.50
23467;DHT22;59740;47.696;11.746;2023-10-19T08:08:18;13.30;90.30
23467;DHT22;59740;47.696;11.746;2023-10-19T08:10:47;13.30;90.30
23467;DHT22;59740;47.696;11.746;2023-10-19T08:13:17;13.40;90.20
23467;DHT22;59740;47.696;11.746;2023-10-19T08:15:45;13.40;90.00
23467;DHT22;59740;47.696;11.746;2023-10-19T08:18:14;13.50;90.10
23467;DHT22;59740;47.696;11.746;2023-10-19T08:20:43;13.50;90.00
23467;DHT22;59740;47.696;11.746;2023-10-19T08:23:12;13.50;90.50
23467;DHT22;59740;47.696;11.746;2023-10-19T08:25:44;13.60;90.60
23467;DHT22;59740;47.696;11.746;2023-10-19T08:28:24;13.60;90.40
23467;DHT22;59740;47.696;11.746;2023-10-19T08:30:53;13.60;90.30
23467;DHT22;59740;47.696;11.746;2023-10-19T08:33:29;13.70;90.20
23467;DHT22;59740;47.696;11.746;2023-10-19T08:36:00;13.70;90.20
23467;DHT22;59740;47.696;11.746;2023-10-19T08:38:29;13.80;89.60
23467;DHT22;59740;47.696;11.746;2023-10-19T08:40:59;13.80;89.40
23467;DHT22;59740;47.696;11.746;2023-10-19T08:43:29;13.90;89.20
23467;DHT22;59740;47.696;11.746;2023-10-19T08:46:01;13.90;89.90
23467;DHT22;59740;47.696;11.746;2023-10-19T08:48:33;14.00;89.40
23467;DHT22;59740;47.696;11.746;2023-10-19T08:51:04;14.00;89.60
23467;DHT22;59740;47.696;11.746;2023-10-19T08:53:37;14.10;89.50
23467;DHT22;59740;47.696;11.746;2023-10-19T08:56:08;14.10;89.40
23467;DHT22;59740;47.696;11.746;2023-10-19T08:58:40;14.20;89.70
23467;DHT22;59740;47.696;11.746;2023-10-19T09:01:09;14.20;90.00
23467;DHT22;59740;47.696;11.746;2023-10-19T09:03:38;14.20;90.00
23467;DHT22;59740;47.696;11.746;2023-10-19T09:06:08;14.30;90.20
23467;DHT22;59740;47.696;11.746;2023-10-19T09:08:40;14.30;90.00
23467;DHT22;59740;47.696;11.746;2023-10-19T09:11:10;14.30;89.80
23467;DHT22;59740;47.696;11.746;2023-10-19T09:13:48;14.40;90.10
23467;DHT22;59740;47.696;11.746;2023-10-19T09:16:18;14.40;90.10
23467;DHT22;59740;47.696;11.746;2023-10-19T09:18:48;14.40;89.60
23467;DHT22;59740;47.696;11.746;2023-10-19T09:21:18;14.50;89.60
23467;DHT22;59740;47.696;11.746;2023-10-19T09:23:53;14.50;89.80
23467;DHT22;59740;47.696;11.746;2023-10-19T09:26:22;14.60;89.50
23467;DHT22;59740;47.696;11.746;2023-10-19T09:28:53;14.60;90.20
23467;DHT22;59740;47.696;11.746;2023-10-19T09:31:22;14.70;90.40
23467;DHT22;59740;47.696;11.746;2023-10-19T09:33:52;14.90;90.80
23467;DHT22;59740;47.696;11.746;2023-10-19T09:36:21;15.00;91.40
23467;DHT22;59740;47.696;11.746;2023-10-19T09:38:54;15.10;90.60
23467;DHT22;59740;47.696;11.746;2023-10-19T09:41:26;15.20;90.40
23467;DHT22;59740;47.696;11.746;2023-10-19T09:44:01;15.30;90.30
23467;DHT22;59740;47.696;11.746;2023-10-19T09:46:35;15.40;90.20
23467;DHT22;59740;47.696;11.746;2023-10-19T09:49:07;15.50;89.90
23467;DHT22;59740;47.696;11.746;2023-10-19T09:51:39;15.60;89.60
23467;DHT22;59740;47.696;11.746;2023-10-19T09:54:27;15.60;89.10
23467;DHT22;59740;47.696;11.746;2023-10-19T09:57:03;15.80;88.40
23467;DHT22;59740;47.696;11.746;2023-10-19T09:59:44;15.90;88.00
23467;DHT22;59740;47.696;11.746;2023-10-19T10:02:15;16.00;88.10
23467;DHT22;59740;47.696;11.746;2023-10-19T10:04:45;16.10;87.80
23467;DHT22;59740;47.696;11.746;2023-10-19T10:07:15;16.20;88.00
23467;DHT22;59740;47.696;11.746;2023-10-19T10:09:52;16.30;88.20
23467;DHT22;59740;47.696;11.746;2023-10-19T10:12:22;16.40;88.00
23467;DHT22;59740;47.696;11.746;2023-10-19T10:14:55;16.60;87.40
23467;DHT22;59740;47.696;11.746;2023-10-19T10:17:25;16.70;88.60
23467;DHT22;59740;47.696;11.746;2023-10-19T10:19:56;16.80;87.50
23467;DHT22;59740;47.696;11.746;2023-10-19T10:22:29;17.00;87.50
23467;DHT22;59740;47.696;11.746;2023-10-19T10:24:59;17.10;86.40
23467;DHT22;59740;47.696;11.746;2023-10-19T10:27:27;17.30;85.60
23467;DHT22;59740;47.696;11.746;2023-10-19T10:30:00;17.40;84.50
23467;DHT22;59740;47.696;11.746;2023-10-19T10:32:44;17.60;83.30
23467;DHT22;59740;47.696;11.746;2023-10-19T10:38:15;17.80;82.60
23467;DHT22;59740;47.696;11.746;2023-10-19T10:40:45;18.00;83.30
23467;DHT22;59740;47.696;11.746;2023-10-19T10:43:15;18.20;82.60
23467;DHT22;59740;47.696;11.746;2023-10-19T10:45:45;18.30;81.60
23467;DHT22;59740;47.696;11.746;2023-10-19T10:48:15;18.40;81.70
23467;DHT22;59740;47.696;11.746;2023-10-19T10:50:44;18.50;82.10
23467;DHT22;59740;47.696;11.746;2023-10-19T10:53:14;18.50;81.10
23467;DHT22;59740;47.696;11.746;2023-10-19T10:55:43;18.60;80.60
23467;DHT22;59740;47.696;11.746;2023-10-19T10:58:15;18.60;81.60
23467;DHT22;59740;47.696;11.746;2023-10-19T11:00:44;18.60;80.60
23467;DHT22;59740;47.696;11.746;2023-10-19T11:03:15;18.70;80.30
23467;DHT22;59740;47.696;11.746;2023-10-19T11:05:44;18.70;80.50
23467;DHT22;59740;47.696;11.746;2023-10-19T11:08:15;18.80;81.60
23467;DHT22;59740;47.696;11.746;2023-10-19T11:10:45;18.80;81.70
23467;DHT22;59740;47.696;11.746;2023-10-19T11:13:15;18.80;81.30
23467;DHT22;59740;47.696;11.746;2023-10-19T11:15:48;18.80;80.30
23467;DHT22;59740;47.696;11.746;2023-10-19T11:18:31;18.90;80.60
23467;DHT22;59740;47.696;11.746;2023-10-19T11:21:01;18.90;80.00
23467;DHT22;59740;47.696;11.746;2023-10-19T11:23:40;18.90;80.10
23467;DHT22;59740;47.696;11.746;2023-10-19T11:26:10;18.90;79.40
23467;DHT22;59740;47.696;11.746;2023-10-19T11:28:40;18.80;79.50
23467;DHT22;59740;47.696;11.746;2023-10-19T11:31:16;18.90;80.30
23467;DHT22;59740;47.696;11.746;2023-10-19T11:33:46;18.90;79.70
23467;DHT22;59740;47.696;11.746;2023-10-19T11:36:17;18.80;79.60
23467;DHT22;59740;47.696;11.746;2023-10-19T11:38:49;18.90;79.70
23467;DHT22;59740;47.696;11.746;2023-10-19T11:41:18;18.90;79.50
23467;DHT22;59740;47.696;11.746;2023-10-19T11:43:48;18.90;78.80
23467;DHT22;59740;47.696;11.746;2023-10-19T11:46:17;19.00;79.10
23467;DHT22;59740;47.696;11.746;2023-10-19T11:48:51;19.10;80.30
23467;DHT22;59740;47.696;11.746;2023-10-19T11:51:19;19.10;80.10
23467;DHT22;59740;47.696;11.746;2023-10-19T11:53:48;19.20;80.00
23467;DHT22;59740;47.696;11.746;2023-10-19T11:56:16;19.30;79.60
23467;DHT22;59740;47.696;11.746;2023-10-19T11:58:45;19.40;79.40
23467;DHT22;59740;47.696;11.746;2023-10-19T12:01:15;19.40;78.80
23467;DHT22;59740;47.696;11.746;2023-10-19T12:03:45;19.40;78.50
23467;DHT22;59740;47.696;11.746;2023-10-19T12:06:17;19.40;78.80
23467;DHT22;59740;47.696;11.746;2023-10-19T12:08:47;19.40;78.80
23467;DHT22;59740;47.696;11.746;2023-10-19T12:11:16;19.50;79.30
23467;DHT22;59740;47.696;11.746;2023-10-19T12:13:47;19.60;79.50
23467;DHT22;59740;47.696;11.746;2023-10-19T12:16:16;19.70;79.90
23467;DHT22;59740;47.696;11.746;2023-10-19T12:18:45;19.90;79.10
23467;DHT22;59740;47.696;11.746;2023-10-19T12:21:17;20.10;79.30
23467;DHT22;59740;47.696;11.746;2023-10-19T12:23:55;20.30;79.80
23467;DHT22;59740;47.696;11.746;2023-10-19T12:26:24;20.60;78.80
23467;DHT22;59740;47.696;11.746;2023-10-19T12:28:53;20.80;77.10
23467;DHT22;59740;47.696;11.746;2023-10-19T12:31:23;21.00;75.70
23467;DHT22;59740;47.696;11.746;2023-10-19T12:33:52;21.20;76.10
23467;DHT22;59740;47.696;11.746;2023-10-19T12:36:22;21.40;74.80
23467;DHT22;59740;47.696;11.746;2023-10-19T12:38:59;21.60;75.00
23467;DHT22;59740;47.696;11.746;2023-10-19T12:41:28;21.80;74.70
23467;DHT22;59740;47.696;11.746;2023-10-19T12:43:56;21.90;72.10
23467;DHT22;59740;47.696;11.746;2023-10-19T12:46:26;22.10;70.90
23467;DHT22;59740;47.696;11.746;2023-10-19T12:48:57;22.30;70.90
23467;DHT22;59740;47.696;11.746;2023-10-19T12:51:27;22.40;70.40
23467;DHT22;59740;47.696;11.746;2023-10-19T12:53:56;22.60;69.30
23467;DHT22;59740;47.696;11.746;2023-10-19T12:56:25;22.70;70.30
23467;DHT22;59740;47.696;11.746;2023-10-19T12:58:56;22.90;69.80
23467;DHT22;59740;47.696;11.746;2023-10-19T13:01:26;23.10;69.70
23467;DHT22;59740;47.696;11.746;2023-10-19T13:03:56;23.30;69.40
23467;DHT22;59740;47.696;11.746;2023-10-19T13:06:29;23.40;67.40
23467;DHT22;59740;47.696;11.746;2023-10-19T13:08:58;23.50;66.80
23467;DHT22;59740;47.696;11.746;2023-10-19T13:11:27;23.60;66.00
23467;DHT22;59740;47.696;11.746;2023-10-19T13:13:59;23.70;64.80
23467;DHT22;59740;47.696;11.746;2023-10-19T13:16:29;23.80;65.70
23467;DHT22;59740;47.696;11.746;2023-10-19T13:18:58;23.90;66.20
23467;DHT22;59740;47.696;11.746;2023-10-19T13:21:37;23.90;66.30
23467;DHT22;59740;47.696;11.746;2023-10-19T13:24:06;24.00;65.80
23467;DHT22;59740;47.696;11.746;2023-10-19T13:26:36;24.00;65.40
23467;DHT22;59740;47.696;11.746;2023-10-19T13:29:05;23.90;65.30
23467;DHT22;59740;47.696;11.746;2023-10-19T13:31:34;23.80;64.40
23467;DHT22;59740;47.696;11.746;2023-10-19T13:34:03;23.60;64.50
23467;DHT22;59740;47.696;11.746;2023-10-19T13:36:38;23.40;64.30
23467;DHT22;59740;47.696;11.746;2023-10-19T13:39:07;23.30;63.80
23467;DHT22;59740;47.696;11.746;2023-10-19T13:41:40;23.10;64.60
23467;DHT22;59740;47.696;11.746;2023-10-19T13:44:09;22.90;65.00
23467;DHT22;59740;47.696;11.746;2023-10-19T13:46:39;22.80;64.70
23467;DHT22;59740;47.696;11.746;2023-10-19T13:49:07;22.60;64.60
23467;DHT22;59740;47.696;11.746;2023-10-19T13:51:38;22.50;65.40
23467;DHT22;59740;47.696;11.746;2023-10-19T13:54:07;22.30;65.60
23467;DHT22;59740;47.696;11.746;2023-10-19T13:56:35;22.20;65.90
23467;DHT22;59740;47.696;11.746;2023-10-19T13:59:04;22.00;66.20
23467;DHT22;59740;47.696;11.746;2023-10-19T14:01:33;21.90;66.20
23467;DHT22;59740;47.696;11.746;2023-10-19T14:04:02;21.70;66.20
23467;DHT22;59740;47.696;11.746;2023-10-19T14:06:31;21.60;66.60
23467;DHT22;59740;47.696;11.746;2023-10-19T14:09:01;21.50;66.90
23467;DHT22;59740;47.696;11.746;2023-10-19T14:11:32;21.30;67.40
23467;DHT22;59740;47.696;11.746;2023-10-19T14:14:01;21.20;67.50
23467;DHT22;59740;47.696;11.746;2023-10-19T14:16:30;21.10;66.90
23467;DHT22;59740;47.696;11.746;2023-10-19T14:18:58;21.00;67.50
23467;DHT22;59740;47.696;11.746;2023-10-19T14:21:27;20.90;67.70
23467;DHT22;59740;47.696;11.746;2023-10-19T14:23:57;20.80;68.20
23467;DHT22;59740;47.696;11.746;2023-10-19T14:26:27;20.70;68.40
23467;DHT22;59740;47.696;11.746;2023-10-19T14:28:55;20.60;68.20
23467;DHT22;59740;47.696;11.746;2023-10-19T14:31:24;20.50;67.90
23467;DHT22;59740;47.696;11.746;2023-10-19T14:33:53;20.40;68.10
23467;DHT22;59740;47.696;11.746;2023-10-19T14:36:22;20.30;68.60
23467;DHT22;59740;47.696;11.746;2023-10-19T14:38:50;20.20;69.20
23467;DHT22;59740;47.696;11.746;2023-10-19T14:41:19;20.10;69.30
23467;DHT22;59740;47.696;11.746;2023-10-19T14:43:49;20.00;69.00
23467;DHT22;59740;47.696;11.746;2023-10-19T14:46:18;19.90;69.20
23467;DHT22;59740;47.696;11.746;2023-10-19T14:48:49;19.80;69.30
23467;DHT22;59740;47.696;11.746;2023-10-19T14:51:18;19.70;69.80
23467;DHT22;59740;47.696;11.746;2023-10-19T14:53:46;19.70;69.80
23467;DHT22;59740;47.696;11.746;2023-10-19T14:56:15;19.70;70.30
23467;DHT22;59740;47.696;11.746;2023-10-19T14:58:43;19.60;70.40
23467;DHT22;59740;47.696;11.746;2023-10-19T15:01:22;19.60;70.90
23467;DHT22;59740;47.696;11.746;2023-10-19T15:03:53;19.60;70.80
23467;DHT22;59740;47.696;11.746;2023-10-19T15:06:23;19.50;70.80
23467;DHT22;59740;47.696;11.746;2023-10-19T15:08:52;19.60;71.40
23467;DHT22;59740;47.696;11.746;2023-10-19T15:11:21;19.60;71.10
23467;DHT22;59740;47.696;11.746;2023-10-19T15:13:52;19.50;70.90
23467;DHT22;59740;47.696;11.746;2023-10-19T15:16:22;19.50;71.20
23467;DHT22;59740;47.696;11.746;2023-10-19T15:18:50;19.50;71.60
23467;DHT22;59740;47.696;11.746;2023-10-19T15:21:19;19.40;71.80
23467;DHT22;59740;47.696;11.746;2023-10-19T15:23:47;19.40;71.80
23467;DHT22;59740;47.696;11.746;2023-10-19T15:26:17;19.40;71.90
23467;DHT22;59740;47.696;11.746;2023-10-19T15:28:46;19.30;72.30
23467;DHT22;59740;47.696;11.746;2023-10-19T15:31:15;19.30;72.50
23467;DHT22;59740;47.696;11.746;2023-10-19T15:33:45;19.20;72.90
23467;DHT22;59740;47.696;11.746;2023-10-19T15:36:14;19.20;73.00
23467;DHT22;59740;47.696;11.746;2023-10-19T15:38:43;19.20;73.90
23467;DHT22;59740;47.696;11.746;2023-10-19T15:41:13;19.10;73.20